NCAR-RAP Real-Time Weather Data

Output produced by METARs form (23 June 2018  19:29 UTC)
found at http://weather.rap.ucar.edu/surface/
 
RJOT 231211Z VRB02KT 4500 -RA BR FEW001 SCT010 BKN030 19/19 Q1006 RMK 1ST001 3ST010 5SC030 A2971
RJOT 231200Z 03002KT 5000 BR FEW001 SCT015 BKN035 19/19 Q1005
RJOT 231100Z 09004KT 040V160 5000 BR FEW002 SCT015 BKN040 19/19 Q1005
RJOT 231000Z VRB02KT 6000 -RA BR FEW005 SCT020 BKN040 19/19 Q1005
RJOT 230900Z VRB02KT 6000 -RA BR FEW006 SCT015 BKN045 20/19 Q1005
RJOT 230800Z 07003KT 030V100 9999 FEW015 SCT040 BKN070 21/18 Q1005
RJOT 230700Z VRB02KT 9999 FEW015 SCT030 BKN040 21/18 Q1004
RJOT 230600Z 13003KT 090V170 9999 FEW010 SCT035 BKN070 21/18 Q1005
RJOT 230500Z VRB03KT 9999 FEW003 SCT020 BKN030 19/18 Q1004
RJOT 230400Z 10005KT 9999 -RA FEW001 SCT025 BKN050 18/18 Q1003
RJOT 230336Z VRB01KT 6000 -RA BR FEW001 SCT007 BKN025 18/17 Q1005 RMK 1ST001 3ST007 5CU025 A2968
RJOT 230331Z VRB01KT 4000 RA BR FEW001 SCT005 BKN020 18/17 Q1005 RMK 1ST001 3ST005 5CU020 A2970
RJOT 230309Z 09003KT 010V170 3500 -RA BR FEW001 SCT007 BKN020 18/17 Q1005 RMK 1ST001 3ST007 5CU020 A2970
RJOT 230300Z VRB02KT 2500 -RA BR FEW001 SCT007 BKN015 18/18 Q1005
RJOT 230249Z 29005KT 2000 RA BR FEW002 SCT007 BKN015 18/18 Q1006 RMK 1ST002 3ST007 5CU015 A2971
RJOT 230231Z 36005KT 3000 RA BR FEW005 SCT008 BKN020 20/19 Q1006 RMK 1ST005 3ST008 5CU020 A2971
RJOT 230200Z 31005KT 270V350 4500 -RA BR FEW005 SCT008 BKN040 21/20 Q1005
RJOT 230100Z 29005KT 260V340 7000 -RA FEW005 SCT080 BKN100 21/20 Q1005
RJOT 230000Z VRB02KT 9999 -RA FEW005 SCT080 BKN100 21/19 Q1004
RJOT 222300Z 05003KT 5000 -RA BR FEW005 SCT080 BKN100 20/19 Q1005
RJOT 222227Z 02003KT 340V050 4500 -RA BR FEW005 SCT080 BKN100 20/19 Q1005 RMK 1ST005 3AC080 5AC100 A2969
RJOT 222200Z 15003KT 090V200 7000 -RA BR FEW005 SCT080 BKN100 20/18 Q1005
RJOT 222120Z 14004KT 7000 -RA BR FEW005 SCT080 BKN100 19/18 Q1006 RMK 1ST005 3AC080 5AC100 A2973
RJOT 221200Z 14005KT CAVOK 21/16 Q1009
RJOT 221100Z 14004KT 110V170 CAVOK 21/18 Q1009
RJOT 221000Z 14004KT 9999 FEW030 BKN/// 23/17 Q1009
RJOT 220900Z 07005KT CAVOK 25/16 Q1008
RJOT 220800Z 06008KT 020V080 CAVOK 26/14 Q1008
RJOT 220700Z 07009KT 9999 FEW025 BKN/// 27/13 Q1008
RJOT 220600Z 08008KT 040V110 9999 FEW025 BKN/// 28/14 Q1008
RJOT 220500Z 04007KT 330V100 9999 FEW025 BKN/// 27/18 Q1009
RJOT 220400Z 03007KT 330V090 9999 FEW025 BKN/// 27/19 Q1009
RJOT 220300Z VRB06KT 9999 FEW025 BKN/// 27/18 Q1010
RJOT 220200Z VRB04KT 9999 FEW025 BKN/// 26/18 Q1010
RJOT 220100Z 01004KT 330V050 9999 FEW025 BKN/// 25/19 Q1011
RJOT 220000Z 01003KT 310V090 9999 FEW025 BKN/// 23/18 Q1011
RJOT 212300Z VRB02KT 9999 FEW025 BKN/// 23/19 Q1011
RJOT 212200Z 14005KT 9999 FEW025 BKN/// 22/18 Q1010
RJOT 212120Z 14007KT 9999 FEW025 BKN/// 18/17 Q1010 RMK 1CU025 A2984
RJOT 211200Z 21006KT CAVOK 21/18 Q1008
RJOT 211100Z 26003KT 210V290 CAVOK 22/18 Q1007
RJOT 211000Z 24004KT CAVOK 24/18 Q1006
RJOT 210900Z 27007KT CAVOK 26/18 Q1006
RJOT 210800Z 27006KT 210V310 9999 FEW025 SCT/// 27/17 Q1005